sensor_id;sensor_type;location;lat;lon;timestamp;temperature;humidity
23723;DHT22;12042;52.136;5.584;2022-08-25T05:59:47;21.60;99.90
23723;DHT22;12042;52.136;5.584;2022-08-25T06:02:12;21.70;99.90
23723;DHT22;12042;52.136;5.584;2022-08-25T06:04:59;21.80;99.90
23723;DHT22;12042;52.136;5.584;2022-08-25T06:07:25;21.90;99.90
23723;DHT22;12042;52.136;5.584;2022-08-25T06:09:50;22.00;99.90
23723;DHT22;12042;52.136;5.584;2022-08-25T06:12:17;22.00;99.90
23723;DHT22;12042;52.136;5.584;2022-08-25T06:14:43;22.10;99.90
23723;DHT22;12042;52.136;5.584;2022-08-25T06:17:10;22.10;99.90
23723;DHT22;12042;52.136;5.584;2022-08-25T06:19:35;22.20;99.90
23723;DHT22;12042;52.136;5.584;2022-08-25T06:22:02;22.30;99.90
23723;DHT22;12042;52.136;5.584;2022-08-25T06:24:27;22.40;99.90
23723;DHT22;12042;52.136;5.584;2022-08-25T06:26:54;22.50;99.90
23723;DHT22;12042;52.136;5.584;2022-08-25T06:29:20;22.60;99.90
23723;DHT22;12042;52.136;5.584;2022-08-25T06:31:46;22.80;99.90
23723;DHT22;12042;52.136;5.584;2022-08-25T06:34:16;22.80;99.90
23723;DHT22;12042;52.136;5.584;2022-08-25T06:36:42;22.90;99.90
23723;DHT22;12042;52.136;5.584;2022-08-25T06:39:08;22.90;99.90
23723;DHT22;12042;52.136;5.584;2022-08-25T06:41:35;23.00;99.90
23723;DHT22;12042;52.136;5.584;2022-08-25T06:44:01;23.00;99.90
23723;DHT22;12042;52.136;5.584;2022-08-25T06:46:27;23.00;99.90
23723;DHT22;12042;52.136;5.584;2022-08-25T06:48:54;23.10;99.90
23723;DHT22;12042;52.136;5.584;2022-08-25T06:51:21;23.10;99.90
23723;DHT22;12042;52.136;5.584;2022-08-25T06:53:48;23.10;99.90
23723;DHT22;12042;52.136;5.584;2022-08-25T06:56:15;23.20;99.90
23723;DHT22;12042;52.136;5.584;2022-08-25T06:58:41;23.20;99.90
23723;DHT22;12042;52.136;5.584;2022-08-25T07:01:11;23.20;99.90
23723;DHT22;12042;52.136;5.584;2022-08-25T07:03:37;23.30;99.90
23723;DHT22;12042;52.136;5.584;2022-08-25T07:06:03;23.30;99.90
23723;DHT22;12042;52.136;5.584;2022-08-25T07:08:29;23.40;99.90
23723;DHT22;12042;52.136;5.584;2022-08-25T07:10:55;23.40;99.90
23723;DHT22;12042;52.136;5.584;2022-08-25T07:13:21;23.50;99.90
23723;DHT22;12042;52.136;5.584;2022-08-25T07:15:46;23.50;99.90
23723;DHT22;12042;52.136;5.584;2022-08-25T07:18:12;23.60;99.90
23723;DHT22;12042;52.136;5.584;2022-08-25T07:20:39;23.80;99.90
23723;DHT22;12042;52.136;5.584;2022-08-25T07:23:05;23.90;99.90
23723;DHT22;12042;52.136;5.584;2022-08-25T07:25:32;24.00;99.90
23723;DHT22;12042;52.136;5.584;2022-08-25T07:27:58;24.10;99.90
23723;DHT22;12042;52.136;5.584;2022-08-25T07:30:24;24.20;99.90
23723;DHT22;12042;52.136;5.584;2022-08-25T07:32:49;24.30;99.90
23723;DHT22;12042;52.136;5.584;2022-08-25T07:35:15;24.40;99.90
23723;DHT22;12042;52.136;5.584;2022-08-25T07:37:43;24.40;99.90
23723;DHT22;12042;52.136;5.584;2022-08-25T07:40:12;24.60;99.90
23723;DHT22;12042;52.136;5.584;2022-08-25T07:42:38;24.70;99.90
23723;DHT22;12042;52.136;5.584;2022-08-25T07:45:05;24.80;99.90
23723;DHT22;12042;52.136;5.584;2022-08-25T07:47:31;24.90;99.90
23723;DHT22;12042;52.136;5.584;2022-08-25T07:49:57;25.00;99.90
23723;DHT22;12042;52.136;5.584;2022-08-25T07:52:23;25.10;99.90
23723;DHT22;12042;52.136;5.584;2022-08-25T07:54:48;25.20;99.90
23723;DHT22;12042;52.136;5.584;2022-08-25T07:57:14;25.20;99.90
23723;DHT22;12042;52.136;5.584;2022-08-25T07:59:41;25.30;99.90
23723;DHT22;12042;52.136;5.584;2022-08-25T08:02:09;25.40;99.90
23723;DHT22;12042;52.136;5.584;2022-08-25T08:04:36;25.50;99.90
23723;DHT22;12042;52.136;5.584;2022-08-25T08:07:02;25.50;99.90
23723;DHT22;12042;52.136;5.584;2022-08-25T08:09:27;25.60;99.90
23723;DHT22;12042;52.136;5.584;2022-08-25T08:11:55;25.60;99.90
23723;DHT22;12042;52.136;5.584;2022-08-25T08:14:22;25.70;99.90
23723;DHT22;12042;52.136;5.584;2022-08-25T08:16:47;25.80;99.90
23723;DHT22;12042;52.136;5.584;2022-08-25T08:19:14;25.90;99.90
23723;DHT22;12042;52.136;5.584;2022-08-25T08:21:40;26.00;99.90
23723;DHT22;12042;52.136;5.584;2022-08-25T08:24:07;26.00;99.90
23723;DHT22;12042;52.136;5.584;2022-08-25T08:26:32;26.10;99.90
23723;DHT22;12042;52.136;5.584;2022-08-25T08:28:58;26.20;99.90
23723;DHT22;12042;52.136;5.584;2022-08-25T08:31:25;26.40;99.90
23723;DHT22;12042;52.136;5.584;2022-08-25T08:33:52;26.60;99.90
23723;DHT22;12042;52.136;5.584;2022-08-25T08:36:18;26.80;99.90
23723;DHT22;12042;52.136;5.584;2022-08-25T08:38:44;27.10;99.90
23723;DHT22;12042;52.136;5.584;2022-08-25T08:41:35;27.40;99.90
23723;DHT22;12042;52.136;5.584;2022-08-25T08:44:38;27.70;99.90
23723;DHT22;12042;52.136;5.584;2022-08-25T08:52:39;28.40;99.90
23723;DHT22;12042;52.136;5.584;2022-08-25T08:55:22;28.60;99.90
23723;DHT22;12042;52.136;5.584;2022-08-25T08:57:51;28.90;99.90
23723;DHT22;12042;52.136;5.584;2022-08-25T09:00:20;29.20;99.90
23723;DHT22;12042;52.136;5.584;2022-08-25T09:03:07;29.30;99.90
23723;DHT22;12042;52.136;5.584;2022-08-25T09:05:48;29.30;99.90
23723;DHT22;12042;52.136;5.584;2022-08-25T09:08:15;29.30;99.90
23723;DHT22;12042;52.136;5.584;2022-08-25T09:13:18;29.50;99.90
23723;DHT22;12042;52.136;5.584;2022-08-25T09:16:03;29.50;99.90
23723;DHT22;12042;52.136;5.584;2022-08-25T09:30:52;30.90;98.80
23723;DHT22;12042;52.136;5.584;2022-08-25T09:33:21;31.00;99.20
23723;DHT22;12042;52.136;5.584;2022-08-25T09:35:50;31.30;99.60
23723;DHT22;12042;52.136;5.584;2022-08-25T09:38:16;31.50;98.20
23723;DHT22;12042;52.136;5.584;2022-08-25T09:40:48;31.60;97.50
23723;DHT22;12042;52.136;5.584;2022-08-25T09:43:21;31.50;98.00
23723;DHT22;12042;52.136;5.584;2022-08-25T09:45:54;31.70;98.80
23723;DHT22;12042;52.136;5.584;2022-08-25T09:48:25;31.80;99.10
23723;DHT22;12042;52.136;5.584;2022-08-25T09:50:56;31.80;97.70
23723;DHT22;12042;52.136;5.584;2022-08-25T09:53:23;32.00;96.30
23723;DHT22;12042;52.136;5.584;2022-08-25T09:56:01;31.80;96.10
23723;DHT22;12042;52.136;5.584;2022-08-25T09:58:29;31.80;95.90
23723;DHT22;12042;52.136;5.584;2022-08-25T10:01:13;31.90;96.50
23723;DHT22;12042;52.136;5.584;2022-08-25T10:03:59;32.10;95.70
23723;DHT22;12042;52.136;5.584;2022-08-25T10:06:55;32.20;94.90
23723;DHT22;12042;52.136;5.584;2022-08-25T10:09:31;32.10;94.10
23723;DHT22;12042;52.136;5.584;2022-08-25T10:11:59;32.10;94.30
23723;DHT22;12042;52.136;5.584;2022-08-25T10:14:43;32.10;95.50
23723;DHT22;12042;52.136;5.584;2022-08-25T10:17:24;32.20;94.20
23723;DHT22;12042;52.136;5.584;2022-08-25T10:20:12;32.20;95.10
23723;DHT22;12042;52.136;5.584;2022-08-25T10:22:41;32.30;94.70
23723;DHT22;12042;52.136;5.584;2022-08-25T10:25:10;32.50;93.50
23723;DHT22;12042;52.136;5.584;2022-08-25T10:36:22;32.60;93.90
23723;DHT22;12042;52.136;5.584;2022-08-25T10:39:00;32.90;93.40
23723;DHT22;12042;52.136;5.584;2022-08-25T10:41:32;32.90;91.70
23723;DHT22;12042;52.136;5.584;2022-08-25T10:49:47;33.20;92.30
23723;DHT22;12042;52.136;5.584;2022-08-25T10:52:31;33.30;91.90
23723;DHT22;12042;52.136;5.584;2022-08-25T10:57:39;33.60;92.40
23723;DHT22;12042;52.136;5.584;2022-08-25T11:05:48;33.60;92.00
23723;DHT22;12042;52.136;5.584;2022-08-25T11:08:35;33.80;90.00
23723;DHT22;12042;52.136;5.584;2022-08-25T11:11:12;33.80;89.40
23723;DHT22;12042;52.136;5.584;2022-08-25T11:13:50;33.60;90.90
23723;DHT22;12042;52.136;5.584;2022-08-25T11:16:33;33.70;90.40
23723;DHT22;12042;52.136;5.584;2022-08-25T11:19:25;33.90;88.20
23723;DHT22;12042;52.136;5.584;2022-08-25T11:27:17;34.30;87.10
23723;DHT22;12042;52.136;5.584;2022-08-25T11:30:05;34.40;90.40
23723;DHT22;12042;52.136;5.584;2022-08-25T11:32:33;34.60;87.60
23723;DHT22;12042;52.136;5.584;2022-08-25T11:35:06;34.60;85.00
23723;DHT22;12042;52.136;5.584;2022-08-25T11:37:33;34.50;86.00
23723;DHT22;12042;52.136;5.584;2022-08-25T11:43:27;34.60;86.40
23723;DHT22;12042;52.136;5.584;2022-08-25T11:51:43;35.00;88.60
23723;DHT22;12042;52.136;5.584;2022-08-25T11:54:19;35.10;87.30
23723;DHT22;12042;52.136;5.584;2022-08-25T11:57:05;35.10;86.10
23723;DHT22;12042;52.136;5.584;2022-08-25T12:13:46;35.50;82.30
23723;DHT22;12042;52.136;5.584;2022-08-25T12:40:28;35.50;84.20
23723;DHT22;12042;52.136;5.584;2022-08-25T12:43:02;35.40;82.80
23723;DHT22;12042;52.136;5.584;2022-08-25T12:45:38;35.50;84.40
23723;DHT22;12042;52.136;5.584;2022-08-25T12:53:37;35.50;84.80
23723;DHT22;12042;52.136;5.584;2022-08-25T12:56:07;35.40;83.00
23723;DHT22;12042;52.136;5.584;2022-08-25T12:59:00;35.30;81.90
23723;DHT22;12042;52.136;5.584;2022-08-25T13:04:08;35.40;82.80
23723;DHT22;12042;52.136;5.584;2022-08-25T13:12:39;36.10;87.20
23723;DHT22;12042;52.136;5.584;2022-08-25T13:15:15;36.50;87.00
23723;DHT22;12042;52.136;5.584;2022-08-25T13:17:49;36.50;78.70
23723;DHT22;12042;52.136;5.584;2022-08-25T13:20:25;36.40;80.90
23723;DHT22;12042;52.136;5.584;2022-08-25T13:22:58;36.00;80.30
23723;DHT22;12042;52.136;5.584;2022-08-25T13:25:27;36.20;80.90
23723;DHT22;12042;52.136;5.584;2022-08-25T13:27:59;36.50;80.10
23723;DHT22;12042;52.136;5.584;2022-08-25T13:30:30;36.80;80.50
23723;DHT22;12042;52.136;5.584;2022-08-25T13:32:57;37.10;80.50
23723;DHT22;12042;52.136;5.584;2022-08-25T13:37:51;36.70;78.70
23723;DHT22;12042;52.136;5.584;2022-08-25T13:40:27;36.30;77.80
23723;DHT22;12042;52.136;5.584;2022-08-25T13:43:06;35.60;78.20
23723;DHT22;12042;52.136;5.584;2022-08-25T13:45:42;35.60;78.20
23723;DHT22;12042;52.136;5.584;2022-08-25T13:48:10;35.90;76.80
23723;DHT22;12042;52.136;5.584;2022-08-25T13:50:39;36.00;79.80
23723;DHT22;12042;52.136;5.584;2022-08-25T13:53:20;36.40;77.90
23723;DHT22;12042;52.136;5.584;2022-08-25T13:55:52;36.70;78.20
23723;DHT22;12042;52.136;5.584;2022-08-25T13:58:24;37.00;76.10
23723;DHT22;12042;52.136;5.584;2022-08-25T14:01:18;36.70;75.30
23723;DHT22;12042;52.136;5.584;2022-08-25T14:03:46;35.70;77.20
23723;DHT22;12042;52.136;5.584;2022-08-25T14:08:46;35.40;78.60
23723;DHT22;12042;52.136;5.584;2022-08-25T14:11:31;35.60;81.60
23723;DHT22;12042;52.136;5.584;2022-08-25T14:14:02;36.10;82.00
23723;DHT22;12042;52.136;5.584;2022-08-25T14:16:31;36.50;77.90
23723;DHT22;12042;52.136;5.584;2022-08-25T14:18:59;36.50;77.60
23723;DHT22;12042;52.136;5.584;2022-08-25T14:21:30;36.80;77.70
23723;DHT22;12042;52.136;5.584;2022-08-25T14:23:57;36.90;75.70
23723;DHT22;12042;52.136;5.584;2022-08-25T14:26:24;37.00;75.40
23723;DHT22;12042;52.136;5.584;2022-08-25T14:28:50;36.90;78.00
23723;DHT22;12042;52.136;5.584;2022-08-25T14:31:28;37.10;75.30
23723;DHT22;12042;52.136;5.584;2022-08-25T14:34:07;37.20;76.40
23723;DHT22;12042;52.136;5.584;2022-08-25T14:36:33;37.50;76.50
23723;DHT22;12042;52.136;5.584;2022-08-25T14:39:00;37.50;74.40
23723;DHT22;12042;52.136;5.584;2022-08-25T14:41:32;37.20;74.70
23723;DHT22;12042;52.136;5.584;2022-08-25T14:43:59;37.20;75.60
23723;DHT22;12042;52.136;5.584;2022-08-25T14:46:27;37.30;74.70
23723;DHT22;12042;52.136;5.584;2022-08-25T14:48:55;37.50;74.20
23723;DHT22;12042;52.136;5.584;2022-08-25T14:51:23;37.40;77.60
23723;DHT22;12042;52.136;5.584;2022-08-25T14:53:49;37.50;75.50
23723;DHT22;12042;52.136;5.584;2022-08-25T14:56:16;37.70;75.00
23723;DHT22;12042;52.136;5.584;2022-08-25T14:58:42;37.60;72.80
23723;DHT22;12042;52.136;5.584;2022-08-25T15:01:11;37.20;74.40
23723;DHT22;12042;52.136;5.584;2022-08-25T15:03:39;37.20;73.50
23723;DHT22;12042;52.136;5.584;2022-08-25T15:06:07;37.50;73.40
23723;DHT22;12042;52.136;5.584;2022-08-25T15:08:35;37.70;74.60
23723;DHT22;12042;52.136;5.584;2022-08-25T15:11:19;38.10;73.20
23723;DHT22;12042;52.136;5.584;2022-08-25T15:13:45;38.40;74.70
23723;DHT22;12042;52.136;5.584;2022-08-25T15:16:19;38.60;73.50
23723;DHT22;12042;52.136;5.584;2022-08-25T15:18:46;38.90;71.00
23723;DHT22;12042;52.136;5.584;2022-08-25T15:21:12;38.90;71.50
23723;DHT22;12042;52.136;5.584;2022-08-25T15:23:37;38.90;69.60
23723;DHT22;12042;52.136;5.584;2022-08-25T15:26:03;38.70;69.50
23723;DHT22;12042;52.136;5.584;2022-08-25T15:28:28;38.60;70.00
23723;DHT22;12042;52.136;5.584;2022-08-25T15:30:54;38.60;71.40
23723;DHT22;12042;52.136;5.584;2022-08-25T15:33:19;38.80;70.10
23723;DHT22;12042;52.136;5.584;2022-08-25T15:35:47;39.00;70.50
23723;DHT22;12042;52.136;5.584;2022-08-25T15:38:12;39.10;70.60
23723;DHT22;12042;52.136;5.584;2022-08-25T15:40:38;39.20;68.40
23723;DHT22;12042;52.136;5.584;2022-08-25T15:43:04;39.10;72.50
23723;DHT22;12042;52.136;5.584;2022-08-25T15:45:30;39.20;70.50
23723;DHT22;12042;52.136;5.584;2022-08-25T15:47:56;38.90;69.60
23723;DHT22;12042;52.136;5.584;2022-08-25T15:50:22;38.80;68.30
23723;DHT22;12042;52.136;5.584;2022-08-25T15:52:48;38.70;67.70
23723;DHT22;12042;52.136;5.584;2022-08-25T15:55:15;38.60;68.90
23723;DHT22;12042;52.136;5.584;2022-08-25T15:57:41;38.60;70.00
23723;DHT22;12042;52.136;5.584;2022-08-25T16:00:08;38.70;69.40
23723;DHT22;12042;52.136;5.584;2022-08-25T16:02:37;38.60;70.80
23723;DHT22;12042;52.136;5.584;2022-08-25T16:05:05;38.60;70.60
23723;DHT22;12042;52.136;5.584;2022-08-25T16:07:31;38.40;71.00
23723;DHT22;12042;52.136;5.584;2022-08-25T16:09:57;38.10;68.50
23723;DHT22;12042;52.136;5.584;2022-08-25T16:12:24;37.40;69.50
23723;DHT22;12042;52.136;5.584;2022-08-25T16:14:50;37.10;71.10
23723;DHT22;12042;52.136;5.584;2022-08-25T16:17:17;37.30;70.30
23723;DHT22;12042;52.136;5.584;2022-08-25T16:19:43;37.50;71.30
23723;DHT22;12042;52.136;5.584;2022-08-25T16:22:09;37.60;70.20
23723;DHT22;12042;52.136;5.584;2022-08-25T16:24:37;37.50;70.30
23723;DHT22;12042;52.136;5.584;2022-08-25T16:27:04;37.40;70.30
23723;DHT22;12042;52.136;5.584;2022-08-25T16:29:33;37.50;70.20
23723;DHT22;12042;52.136;5.584;2022-08-25T16:31:58;37.60;69.90
23723;DHT22;12042;52.136;5.584;2022-08-25T16:34:25;37.60;69.80
23723;DHT22;12042;52.136;5.584;2022-08-25T16:36:51;37.70;72.70
23723;DHT22;12042;52.136;5.584;2022-08-25T16:39:17;37.80;69.00
23723;DHT22;12042;52.136;5.584;2022-08-25T16:41:43;37.90;68.80
23723;DHT22;12042;52.136;5.584;2022-08-25T16:44:08;37.90;70.40
23723;DHT22;12042;52.136;5.584;2022-08-25T16:46:34;37.90;68.70
23723;DHT22;12042;52.136;5.584;2022-08-25T16:49:01;37.70;68.50
23723;DHT22;12042;52.136;5.584;2022-08-25T16:51:27;37.70;69.00
23723;DHT22;12042;52.136;5.584;2022-08-25T16:53:53;37.80;68.70
23723;DHT22;12042;52.136;5.584;2022-08-25T16:56:38;37.60;68.00
23723;DHT22;12042;52.136;5.584;2022-08-25T16:59:07;37.40;69.30
23723;DHT22;12042;52.136;5.584;2022-08-25T17:01:34;37.40;69.50
23723;DHT22;12042;52.136;5.584;2022-08-25T17:04:01;37.20;69.50
23723;DHT22;12042;52.136;5.584;2022-08-25T17:06:28;37.00;69.30
23723;DHT22;12042;52.136;5.584;2022-08-25T17:08:54;36.70;69.60
23723;DHT22;12042;52.136;5.584;2022-08-25T17:11:23;36.50;69.80
23723;DHT22;12042;52.136;5.584;2022-08-25T17:13:52;36.20;71.80
23723;DHT22;12042;52.136;5.584;2022-08-25T17:16:19;36.00;71.90
23723;DHT22;12042;52.136;5.584;2022-08-25T17:18:46;35.80;71.90
23723;DHT22;12042;52.136;5.584;2022-08-25T17:21:14;35.70;73.50
23723;DHT22;12042;52.136;5.584;2022-08-25T17:23:42;35.40;74.00
23723;DHT22;12042;52.136;5.584;2022-08-25T17:26:11;35.00;75.10
23723;DHT22;12042;52.136;5.584;2022-08-25T17:28:37;34.70;78.10
23723;DHT22;12042;52.136;5.584;2022-08-25T17:31:04;34.50;77.50
23723;DHT22;12042;52.136;5.584;2022-08-25T17:33:29;34.20;79.10
23723;DHT22;12042;52.136;5.584;2022-08-25T17:35:55;34.00;79.70
23723;DHT22;12042;52.136;5.584;2022-08-25T17:38:23;33.70;80.90
23723;DHT22;12042;52.136;5.584;2022-08-25T17:40:51;33.60;80.50
23723;DHT22;12042;52.136;5.584;2022-08-25T17:43:19;33.40;81.10
23723;DHT22;12042;52.136;5.584;2022-08-25T17:45:45;33.20;81.80
23723;DHT22;12042;52.136;5.584;2022-08-25T17:48:11;33.10;81.50
23723;DHT22;12042;52.136;5.584;2022-08-25T17:50:38;33.00;83.10
23723;DHT22;12042;52.136;5.584;2022-08-25T17:53:04;32.90;81.90
23723;DHT22;12042;52.136;5.584;2022-08-25T17:55:29;32.80;82.60
23723;DHT22;12042;52.136;5.584;2022-08-25T17:57:55;32.90;82.40
23723;DHT22;12042;52.136;5.584;2022-08-25T18:00:21;32.90;82.50
23723;DHT22;12042;52.136;5.584;2022-08-25T18:02:47;32.90;82.80
23723;DHT22;12042;52.136;5.584;2022-08-25T18:05:14;32.90;83.00
23723;DHT22;12042;52.136;5.584;2022-08-25T18:07:40;32.90;83.50
23723;DHT22;12042;52.136;5.584;2022-08-25T18:10:08;32.80;85.00
23723;DHT22;12042;52.136;5.584;2022-08-25T18:12:34;32.60;86.60
23723;DHT22;12042;52.136;5.584;2022-08-25T18:15:00;32.30;88.10
23723;DHT22;12042;52.136;5.584;2022-08-25T18:17:26;32.00;89.30
23723;DHT22;12042;52.136;5.584;2022-08-25T18:19:52;31.80;90.00
23723;DHT22;12042;52.136;5.584;2022-08-25T18:22:18;31.80;90.30
23723;DHT22;12042;52.136;5.584;2022-08-25T18:24:44;31.50;91.30
23723;DHT22;12042;52.136;5.584;2022-08-25T18:27:11;31.20;92.50
23723;DHT22;12042;52.136;5.584;2022-08-25T18:29:38;31.10;93.00
23723;DHT22;12042;52.136;5.584;2022-08-25T18:32:04;31.00;93.60
23723;DHT22;12042;52.136;5.584;2022-08-25T18:34:30;30.80;94.20
23723;DHT22;12042;52.136;5.584;2022-08-25T18:36:56;30.70;94.90
23723;DHT22;12042;52.136;5.584;2022-08-25T18:39:23;30.70;95.70
23723;DHT22;12042;52.136;5.584;2022-08-25T18:42:07;30.60;96.10
23723;DHT22;12042;52.136;5.584;2022-08-25T18:44:32;30.60;96.50
23723;DHT22;12042;52.136;5.584;2022-08-25T18:46:58;30.50;97.20
23723;DHT22;12042;52.136;5.584;2022-08-25T18:49:24;30.20;97.50
23723;DHT22;12042;52.136;5.584;2022-08-25T18:51:49;30.10;97.80
23723;DHT22;12042;52.136;5.584;2022-08-25T18:54:17;30.00;98.20
23723;DHT22;12042;52.136;5.584;2022-08-25T18:56:43;29.70;98.80
23723;DHT22;12042;52.136;5.584;2022-08-25T18:59:09;29.50;99.10
23723;DHT22;12042;52.136;5.584;2022-08-25T19:01:35;29.50;99.40
23723;DHT22;12042;52.136;5.584;2022-08-25T19:04:01;29.40;99.50
23723;DHT22;12042;52.136;5.584;2022-08-25T19:06:28;29.30;99.90
23723;DHT22;12042;52.136;5.584;2022-08-25T19:08:55;29.30;99.90
23723;DHT22;12042;52.136;5.584;2022-08-25T19:11:21;29.20;99.90
23723;DHT22;12042;52.136;5.584;2022-08-25T19:13:46;29.00;99.90
23723;DHT22;12042;52.136;5.584;2022-08-25T19:16:17;28.80;99.90
23723;DHT22;12042;52.136;5.584;2022-08-25T19:18:44;28.70;99.90
23723;DHT22;12042;52.136;5.584;2022-08-25T19:21:10;28.50;99.90
23723;DHT22;12042;52.136;5.584;2022-08-25T19:23:36;28.40;99.90
23723;DHT22;12042;52.136;5.584;2022-08-25T19:26:04;28.20;99.90
23723;DHT22;12042;52.136;5.584;2022-08-25T19:28:30;28.10;99.90
23723;DHT22;12042;52.136;5.584;2022-08-25T19:30:56;28.10;99.90
23723;DHT22;12042;52.136;5.584;2022-08-25T19:33:22;27.90;99.90
23723;DHT22;12042;52.136;5.584;2022-08-25T19:35:49;27.80;99.90
23723;DHT22;12042;52.136;5.584;2022-08-25T19:38:19;27.50;99.90
23723;DHT22;12042;52.136;5.584;2022-08-25T19:40:47;27.40;99.90
23723;DHT22;12042;52.136;5.584;2022-08-25T19:43:13;27.30;99.90
23723;DHT22;12042;52.136;5.584;2022-08-25T19:45:40;27.10;99.90
23723;DHT22;12042;52.136;5.584;2022-08-25T19:48:06;27.00;99.90
23723;DHT22;12042;52.136;5.584;2022-08-25T19:50:33;26.80;99.90
23723;DHT22;12042;52.136;5.584;2022-08-25T19:52:59;26.70;99.90
23723;DHT22;12042;52.136;5.584;2022-08-25T19:55:25;26.60;99.90
23723;DHT22;12042;52.136;5.584;2022-08-25T19:57:51;26.60;99.90
23723;DHT22;12042;52.136;5.584;2022-08-25T20:00:24;26.50;99.90
23723;DHT22;12042;52.136;5.584;2022-08-25T20:02:49;26.40;99.90
23723;DHT22;12042;52.136;5.584;2022-08-25T20:05:15;26.40;99.90
23723;DHT22;12042;52.136;5.584;2022-08-25T20:07:42;26.30;99.90
23723;DHT22;12042;52.136;5.584;2022-08-25T20:10:11;26.30;99.90
23723;DHT22;12042;52.136;5.584;2022-08-25T20:12:37;26.20;99.90
23723;DHT22;12042;52.136;5.584;2022-08-25T20:15:05;26.00;99.90
23723;DHT22;12042;52.136;5.584;2022-08-25T20:17:31;25.90;99.90
23723;DHT22;12042;52.136;5.584;2022-08-25T20:19:58;25.70;99.90
23723;DHT22;12042;52.136;5.584;2022-08-25T20:22:27;25.60;99.90
23723;DHT22;12042;52.136;5.584;2022-08-25T20:24:55;25.50;99.90
23723;DHT22;12042;52.136;5.584;2022-08-25T20:27:23;25.50;99.90
23723;DHT22;12042;52.136;5.584;2022-08-25T20:29:50;25.40;99.90
23723;DHT22;12042;52.136;5.584;2022-08-25T20:32:16;25.30;99.90
23723;DHT22;12042;52.136;5.584;2022-08-25T20:34:44;25.30;99.90
23723;DHT22;12042;52.136;5.584;2022-08-25T20:37:11;25.30;99.90
23723;DHT22;12042;52.136;5.584;2022-08-25T20:39:38;25.20;99.90
23723;DHT22;12042;52.136;5.584;2022-08-25T20:42:04;25.20;99.90
23723;DHT22;12042;52.136;5.584;2022-08-25T20:44:30;25.20;99.90
23723;DHT22;12042;52.136;5.584;2022-08-25T20:47:07;25.20;99.90
23723;DHT22;12042;52.136;5.584;2022-08-25T20:49:34;25.00;99.90
23723;DHT22;12042;52.136;5.584;2022-08-25T20:52:00;25.00;99.90
23723;DHT22;12042;52.136;5.584;2022-08-25T20:54:27;24.90;99.90
23723;DHT22;12042;52.136;5.584;2022-08-25T20:56:53;25.00;99.90
23723;DHT22;12042;52.136;5.584;2022-08-25T20:59:24;25.00;99.90
23723;DHT22;12042;52.136;5.584;2022-08-25T21:01:52;25.00;99.90
23723;DHT22;12042;52.136;5.584;2022-08-25T21:04:20;25.00;99.90
23723;DHT22;12042;52.136;5.584;2022-08-25T21:06:46;24.90;99.90
23723;DHT22;12042;52.136;5.584;2022-08-25T21:09:14;24.90;99.90
23723;DHT22;12042;52.136;5.584;2022-08-25T21:11:40;24.80;99.90
23723;DHT22;12042;52.136;5.584;2022-08-25T21:14:06;24.80;99.90
23723;DHT22;12042;52.136;5.584;2022-08-25T21:16:34;24.70;99.90
23723;DHT22;12042;52.136;5.584;2022-08-25T21:19:00;24.70;99.90
23723;DHT22;12042;52.136;5.584;2022-08-25T21:21:26;24.60;99.90
23723;DHT22;12042;52.136;5.584;2022-08-25T21:23:53;24.60;99.90
23723;DHT22;12042;52.136;5.584;2022-08-25T21:26:27;24.70;99.90
23723;DHT22;12042;52.136;5.584;2022-08-25T21:28:59;24.60;99.90
23723;DHT22;12042;52.136;5.584;2022-08-25T21:31:25;24.50;99.90
23723;DHT22;12042;52.136;5.584;2022-08-25T21:33:53;24.50;99.90
23723;DHT22;12042;52.136;5.584;2022-08-25T21:36:19;24.50;99.90
23723;DHT22;12042;52.136;5.584;2022-08-25T21:38:45;24.50;99.90
23723;DHT22;12042;52.136;5.584;2022-08-25T21:41:13;24.40;99.90
23723;DHT22;12042;52.136;5.584;2022-08-25T21:43:40;24.40;99.90
23723;DHT22;12042;52.136;5.584;2022-08-25T21:46:10;24.20;99.90
23723;DHT22;12042;52.136;5.584;2022-08-25T21:48:36;24.20;99.90
23723;DHT22;12042;52.136;5.584;2022-08-25T21:51:03;24.10;99.90
23723;DHT22;12042;52.136;5.584;2022-08-25T21:53:30;24.10;99.90
23723;DHT22;12042;52.136;5.584;2022-08-25T21:55:55;24.10;99.90
23723;DHT22;12042;52.136;5.584;2022-08-25T21:58:21;24.10;99.90
23723;DHT22;12042;52.136;5.584;2022-08-25T22:00:46;24.10;99.90
23723;DHT22;12042;52.136;5.584;2022-08-25T22:03:12;24.00;99.90
23723;DHT22;12042;52.136;5.584;2022-08-25T22:05:37;23.90;99.90
23723;DHT22;12042;52.136;5.584;2022-08-25T22:08:03;23.80;99.90
23723;DHT22;12042;52.136;5.584;2022-08-25T22:10:29;23.70;99.90
23723;DHT22;12042;52.136;5.584;2022-08-25T22:12:54;23.70;99.90
23723;DHT22;12042;52.136;5.584;2022-08-25T22:15:20;23.60;99.90
23723;DHT22;12042;52.136;5.584;2022-08-25T22:17:48;23.50;99.90
23723;DHT22;12042;52.136;5.584;2022-08-25T22:20:14;23.50;99.90
23723;DHT22;12042;52.136;5.584;2022-08-25T22:22:41;23.50;99.90
23723;DHT22;12042;52.136;5.584;2022-08-25T22:25:07;23.40;99.90
23723;DHT22;12042;52.136;5.584;2022-08-25T22:27:32;23.40;99.90
23723;DHT22;12042;52.136;5.584;2022-08-25T22:29:58;23.30;99.90
23723;DHT22;12042;52.136;5.584;2022-08-25T22:32:24;23.20;99.90
23723;DHT22;12042;52.136;5.584;2022-08-25T22:34:50;23.20;99.90
23723;DHT22;12042;52.136;5.584;2022-08-25T22:37:15;23.10;99.90
23723;DHT22;12042;52.136;5.584;2022-08-25T22:39:43;23.10;99.90
23723;DHT22;12042;52.136;5.584;2022-08-25T22:42:10;23.10;99.90
23723;DHT22;12042;52.136;5.584;2022-08-25T22:44:39;23.10;99.90
23723;DHT22;12042;52.136;5.584;2022-08-25T22:47:05;23.00;99.90
23723;DHT22;12042;52.136;5.584;2022-08-25T22:49:31;23.00;99.90
23723;DHT22;12042;52.136;5.584;2022-08-25T22:51:59;23.00;99.90
23723;DHT22;12042;52.136;5.584;2022-08-25T22:54:25;23.00;99.90
23723;DHT22;12042;52.136;5.584;2022-08-25T22:56:51;22.80;99.90
23723;DHT22;12042;52.136;5.584;2022-08-25T22:59:17;22.90;99.90
23723;DHT22;12042;52.136;5.584;2022-08-25T23:01:43;22.80;99.90
23723;DHT22;12042;52.136;5.584;2022-08-25T23:04:11;22.70;99.90
23723;DHT22;12042;52.136;5.584;2022-08-25T23:06:37;22.70;99.90
23723;DHT22;12042;52.136;5.584;2022-08-25T23:09:06;22.60;99.90
23723;DHT22;12042;52.136;5.584;2022-08-25T23:11:33;22.60;99.90
23723;DHT22;12042;52.136;5.584;2022-08-25T23:14:00;22.60;99.90
23723;DHT22;12042;52.136;5.584;2022-08-25T23:16:27;22.70;99.90
23723;DHT22;12042;52.136;5.584;2022-08-25T23:18:52;22.60;99.90
23723;DHT22;12042;52.136;5.584;2022-08-25T23:21:18;22.70;99.90
23723;DHT22;12042;52.136;5.584;2022-08-25T23:24:03;22.60;99.90
23723;DHT22;12042;52.136;5.584;2022-08-25T23:26:31;22.60;99.90
23723;DHT22;12042;52.136;5.584;2022-08-25T23:28:57;22.70;99.90
23723;DHT22;12042;52.136;5.584;2022-08-25T23:31:23;22.60;99.90
23723;DHT22;12042;52.136;5.584;2022-08-25T23:33:49;22.60;99.90